createdAt,value
2022-09-11T00:01:28.438Z,11.80
2022-09-11T00:03:57.085Z,11.80
2022-09-11T00:06:30.147Z,11.70
2022-09-11T00:09:01.338Z,11.80
2022-09-11T00:11:31.563Z,11.80
2022-09-11T00:14:00.101Z,11.80
2022-09-11T00:16:29.798Z,11.80
2022-09-11T00:18:59.939Z,11.90
2022-09-11T00:21:29.581Z,11.90
2022-09-11T00:23:57.660Z,12.00
2022-09-11T00:26:26.392Z,12.00
2022-09-11T00:28:55.518Z,12.00
2022-09-11T00:31:25.487Z,12.00
2022-09-11T00:33:54.156Z,12.00
2022-09-11T00:36:25.876Z,11.90
2022-09-11T00:38:56.250Z,11.90
2022-09-11T00:41:25.831Z,11.90
2022-09-11T00:43:57.544Z,11.90
2022-09-11T00:46:34.614Z,11.80
2022-09-11T00:49:06.056Z,11.80
2022-09-11T00:51:35.658Z,11.80
2022-09-11T00:54:06.244Z,11.80
2022-09-11T00:56:38.679Z,11.80
2022-09-11T00:59:07.868Z,11.70
2022-09-11T01:01:37.231Z,11.70
2022-09-11T01:04:07.732Z,11.60
2022-09-11T01:06:35.895Z,11.50
2022-09-11T01:09:05.711Z,11.40
2022-09-11T01:11:46.774Z,11.20
2022-09-11T01:14:34.302Z,11.10
2022-09-11T01:17:12.765Z,11.00
2022-09-11T01:19:55.930Z,11.00
2022-09-11T01:22:42.914Z,10.80
2022-09-11T01:25:24.392Z,10.70
2022-09-11T01:27:55.546Z,10.70
2022-09-11T01:30:25.411Z,10.60
2022-09-11T01:33:11.248Z,10.50
2022-09-11T01:35:49.539Z,10.50
2022-09-11T01:38:23.282Z,10.40
2022-09-11T01:40:54.502Z,10.40
2022-09-11T01:43:29.158Z,10.40
2022-09-11T01:45:59.577Z,10.40
2022-09-11T01:48:32.971Z,10.40
2022-09-11T01:51:03.584Z,10.40
2022-09-11T01:53:37.458Z,10.30
2022-09-11T01:56:13.231Z,10.20
2022-09-11T01:58:47.190Z,10.10
2022-09-11T02:01:20.230Z,10.10
2022-09-11T02:03:51.857Z,10.10
2022-09-11T02:06:28.276Z,10.10
2022-09-11T02:09:00.171Z,10.10
2022-09-11T02:11:35.353Z,10.00
2022-09-11T02:14:14.069Z,10.00
2022-09-11T02:16:47.777Z,9.90
2022-09-11T02:19:18.068Z,9.90
2022-09-11T02:21:48.811Z,9.80
2022-09-11T02:24:17.608Z,9.80
2022-09-11T02:26:52.662Z,9.80
2022-09-11T02:29:24.458Z,9.80
2022-09-11T02:31:53.249Z,9.80
2022-09-11T02:34:28.013Z,9.70
2022-09-11T02:37:12.110Z,9.70
2022-09-11T02:40:00.396Z,9.70
2022-09-11T02:42:39.933Z,9.60
2022-09-11T02:45:21.580Z,9.50
2022-09-11T02:47:59.897Z,9.50
2022-09-11T02:50:34.257Z,9.50
2022-09-11T02:53:07.638Z,9.60
2022-09-11T02:55:49.821Z,9.70
2022-09-11T02:58:23.014Z,9.80
2022-09-11T03:00:56.191Z,9.80
2022-09-11T03:03:24.137Z,9.90
2022-09-11T03:05:53.013Z,9.90
2022-09-11T03:08:21.150Z,10.00
2022-09-11T03:10:49.958Z,10.00
2022-09-11T03:13:18.238Z,10.10
2022-09-11T03:15:47.579Z,10.10
2022-09-11T03:18:17.020Z,10.20
2022-09-11T03:20:46.965Z,10.20
2022-09-11T03:23:14.985Z,10.40
2022-09-11T03:25:42.988Z,10.40
2022-09-11T03:28:11.991Z,10.50
2022-09-11T03:30:41.461Z,10.60
2022-09-11T03:33:09.765Z,10.70
2022-09-11T03:35:39.501Z,10.70
2022-09-11T03:38:07.407Z,10.70
2022-09-11T03:40:35.509Z,10.80
2022-09-11T03:43:03.787Z,10.90
2022-09-11T03:45:32.299Z,11.00
2022-09-11T03:48:01.243Z,11.00
2022-09-11T03:50:29.240Z,11.10
2022-09-11T03:52:59.355Z,11.10
2022-09-11T03:55:28.675Z,11.10
2022-09-11T03:57:56.647Z,11.10
2022-09-11T04:00:26.257Z,11.20
2022-09-11T04:02:57.791Z,11.20
2022-09-11T04:05:33.144Z,11.10
2022-09-11T04:08:04.395Z,11.20
2022-09-11T04:10:34.169Z,11.20
2022-09-11T04:13:03.158Z,11.30
2022-09-11T04:15:32.904Z,11.40
2022-09-11T04:18:05.324Z,11.40
2022-09-11T04:20:34.894Z,11.40
2022-09-11T04:23:05.196Z,11.50
2022-09-11T04:25:33.387Z,11.50
2022-09-11T04:28:05.077Z,11.50
2022-09-11T04:30:35.782Z,11.50
2022-09-11T04:33:04.028Z,11.60
2022-09-11T04:35:32.019Z,11.60
2022-09-11T04:38:01.741Z,11.70
2022-09-11T04:40:32.741Z,11.70
2022-09-11T04:43:01.042Z,11.80
2022-09-11T04:45:29.908Z,11.80
2022-09-11T04:47:57.888Z,11.90
2022-09-11T04:50:25.860Z,11.90
2022-09-11T04:53:11.740Z,12.00
2022-09-11T04:55:41.137Z,12.00
2022-09-11T04:58:10.140Z,12.00
2022-09-11T05:00:38.166Z,12.10
2022-09-11T05:03:06.104Z,12.10
2022-09-11T05:05:34.151Z,12.10
2022-09-11T05:08:03.983Z,12.20
2022-09-11T05:10:32.633Z,12.20
2022-09-11T05:13:01.899Z,12.20
2022-09-11T05:15:31.839Z,12.30
2022-09-11T05:18:00.674Z,12.30
2022-09-11T05:20:31.754Z,12.30
2022-09-11T05:22:59.654Z,12.40
2022-09-11T05:25:31.803Z,12.40
2022-09-11T05:28:01.259Z,12.50
2022-09-11T05:30:29.948Z,12.50
2022-09-11T05:32:58.167Z,12.60
2022-09-11T05:35:30.364Z,12.60
2022-09-11T05:38:00.396Z,12.70
2022-09-11T05:40:28.773Z,12.70
2022-09-11T05:42:56.827Z,12.80
2022-09-11T05:45:26.983Z,12.80
2022-09-11T05:47:55.990Z,12.80
2022-09-11T05:50:24.473Z,12.90
2022-09-11T05:52:52.628Z,12.90
2022-09-11T05:55:20.669Z,13.00
2022-09-11T05:57:48.633Z,13.00
2022-09-11T06:00:17.041Z,13.00
2022-09-11T06:02:54.360Z,13.00
2022-09-11T06:05:25.369Z,13.00
2022-09-11T06:07:55.144Z,13.00
2022-09-11T06:10:23.006Z,13.10
2022-09-11T06:12:51.298Z,13.20
2022-09-11T06:15:42.964Z,13.20
2022-09-11T06:18:09.157Z,13.30
2022-09-11T06:20:37.325Z,13.40
2022-09-11T06:23:09.384Z,13.40
2022-09-11T06:25:39.045Z,13.40
2022-09-11T06:28:07.546Z,13.40
2022-09-11T06:30:36.127Z,13.50
2022-09-11T06:33:04.373Z,13.60
2022-09-11T06:35:33.670Z,13.60
2022-09-11T06:38:02.811Z,13.70
2022-09-11T06:40:31.268Z,13.80
2022-09-11T06:43:00.737Z,13.70
2022-09-11T06:45:31.322Z,13.70
2022-09-11T06:47:59.201Z,13.80
2022-09-11T06:50:30.042Z,14.10
2022-09-11T06:53:08.779Z,14.50
2022-09-11T06:55:40.303Z,14.70
2022-09-11T06:58:12.063Z,14.80
2022-09-11T07:00:40.672Z,14.80
2022-09-11T07:03:11.597Z,14.70
2022-09-11T07:05:39.454Z,14.60
2022-09-11T07:08:10.315Z,14.50
2022-09-11T07:10:38.410Z,14.50
2022-09-11T07:13:06.499Z,14.30
2022-09-11T07:15:35.468Z,14.20
2022-09-11T07:18:05.528Z,14.20
2022-09-11T07:20:33.751Z,14.20
2022-09-11T07:23:02.750Z,14.30
2022-09-11T07:25:36.175Z,14.50
2022-09-11T07:28:04.762Z,14.60
2022-09-11T07:30:33.514Z,14.70
2022-09-11T07:33:01.763Z,14.80
2022-09-11T07:35:31.787Z,14.70
2022-09-11T07:37:59.739Z,14.60
2022-09-11T07:40:28.900Z,14.50
2022-09-11T07:43:01.192Z,14.40
2022-09-11T07:45:29.708Z,14.30
2022-09-11T07:48:01.283Z,14.30
2022-09-11T07:50:30.937Z,14.20
2022-09-11T07:52:59.014Z,14.10
2022-09-11T07:55:27.119Z,14.00
2022-09-11T07:57:55.757Z,13.90
2022-09-11T08:00:26.069Z,13.80
2022-09-11T08:03:09.681Z,13.80
2022-09-11T08:05:39.289Z,13.70
2022-09-11T08:08:07.340Z,13.80
2022-09-11T08:10:40.864Z,13.80
2022-09-11T08:13:09.714Z,13.90
2022-09-11T08:15:46.506Z,13.90
2022-09-11T08:18:14.461Z,13.90
2022-09-11T08:20:42.745Z,13.80
2022-09-11T08:23:11.497Z,13.80
2022-09-11T08:25:40.463Z,13.80
2022-09-11T08:28:10.421Z,13.80
2022-09-11T08:30:40.150Z,13.90
2022-09-11T08:33:09.641Z,14.00
2022-09-11T08:35:38.502Z,14.30
2022-09-11T08:38:06.577Z,14.30
2022-09-11T08:40:39.236Z,14.30
2022-09-11T08:43:15.141Z,14.30
2022-09-11T08:45:45.097Z,14.20
2022-09-11T08:48:14.112Z,14.20
2022-09-11T08:50:44.387Z,14.20
2022-09-11T08:53:21.197Z,14.30
2022-09-11T08:55:53.541Z,14.40
2022-09-11T08:58:31.490Z,14.60
2022-09-11T09:01:09.393Z,14.80
2022-09-11T09:04:00.529Z,15.00
2022-09-11T09:06:41.855Z,15.10
2022-09-11T09:09:19.013Z,15.40
2022-09-11T09:11:57.562Z,15.30
2022-09-11T09:15:01.582Z,15.30
2022-09-11T09:17:38.452Z,15.30
2022-09-11T09:20:13.536Z,15.30
2022-09-11T09:22:49.058Z,15.10
2022-09-11T09:25:22.575Z,15.00
2022-09-11T09:27:58.054Z,15.10
2022-09-11T09:30:27.577Z,15.30
2022-09-11T09:33:00.831Z,15.50
2022-09-11T09:35:39.384Z,15.50
2022-09-11T09:38:14.022Z,15.60
2022-09-11T09:40:47.280Z,15.90
2022-09-11T09:43:34.870Z,16.10
2022-09-11T09:46:13.439Z,16.60
2022-09-11T09:48:43.485Z,18.40
2022-09-11T09:51:14.241Z,20.50
2022-09-11T09:53:47.045Z,22.70
2022-09-11T09:56:19.310Z,24.20
2022-09-11T09:58:54.941Z,23.80
2022-09-11T10:01:44.014Z,22.20
2022-09-11T10:04:17.070Z,20.80
2022-09-11T10:06:46.433Z,19.00
2022-09-11T10:09:23.555Z,18.60
2022-09-11T10:12:02.028Z,17.90
2022-09-11T10:17:23.293Z,17.70
2022-09-11T10:19:55.607Z,18.10
2022-09-11T10:22:29.231Z,19.10
2022-09-11T10:25:15.921Z,19.10
2022-09-11T10:27:56.274Z,19.00
2022-09-11T10:30:34.023Z,19.50
2022-09-11T10:33:06.311Z,19.70
2022-09-11T10:35:37.781Z,19.80
2022-09-11T10:38:18.016Z,19.70
2022-09-11T10:40:58.474Z,19.20
2022-09-11T10:43:32.980Z,18.50
2022-09-11T10:46:06.731Z,18.20
2022-09-11T10:48:35.001Z,17.70
2022-09-11T10:51:12.513Z,17.50
2022-09-11T10:53:51.764Z,17.00
2022-09-11T10:56:20.543Z,16.10
2022-09-11T10:58:55.029Z,15.40
2022-09-11T11:01:23.265Z,15.30
2022-09-11T11:03:52.270Z,15.20
2022-09-11T11:06:37.191Z,15.40
2022-09-11T11:09:16.204Z,15.60
2022-09-11T11:11:56.687Z,15.60
2022-09-11T11:14:44.337Z,15.50
2022-09-11T11:17:21.504Z,15.50
2022-09-11T11:20:06.396Z,15.80
2022-09-11T11:23:05.468Z,16.20
2022-09-11T11:25:46.251Z,16.60
2022-09-11T11:28:37.247Z,16.60
2022-09-11T11:31:16.284Z,16.70
2022-09-11T11:34:10.472Z,17.00
2022-09-11T11:36:46.091Z,16.90
2022-09-11T11:39:25.049Z,16.80
2022-09-11T11:42:04.625Z,16.90
2022-09-11T11:44:38.334Z,16.60
2022-09-11T11:47:09.813Z,16.90
2022-09-11T11:49:48.972Z,17.30
2022-09-11T11:52:27.541Z,18.00
2022-09-11T11:55:07.080Z,18.60
2022-09-11T11:57:41.902Z,18.30
2022-09-11T12:00:14.037Z,17.90
2022-09-11T12:02:47.252Z,17.80
2022-09-11T12:05:18.717Z,17.40
2022-09-11T12:07:48.321Z,17.70
2022-09-11T12:10:31.918Z,17.30
2022-09-11T12:13:02.233Z,17.10
2022-09-11T12:15:34.272Z,17.30
2022-09-11T12:18:04.786Z,17.70
2022-09-11T12:20:39.169Z,17.90
2022-09-11T12:23:09.180Z,17.50
2022-09-11T12:26:06.940Z,17.00
2022-09-11T12:28:35.808Z,16.70
2022-09-11T12:31:06.957Z,16.30
2022-09-11T12:33:54.490Z,16.40
2022-09-11T12:36:53.813Z,16.50
2022-09-11T12:39:30.888Z,16.70
2022-09-11T12:42:36.265Z,17.10
2022-09-11T12:45:06.272Z,16.90
2022-09-11T12:47:37.321Z,16.90
2022-09-11T12:50:16.822Z,17.30
2022-09-11T12:52:51.470Z,17.30
2022-09-11T12:55:31.423Z,17.10
2022-09-11T12:58:03.746Z,16.40
2022-09-11T13:00:40.207Z,16.10
2022-09-11T13:03:18.626Z,16.50
2022-09-11T13:05:55.147Z,16.80
2022-09-11T13:08:26.296Z,16.80
2022-09-11T13:10:54.413Z,17.00
2022-09-11T13:13:44.421Z,16.50
2022-09-11T13:16:24.276Z,16.00
2022-09-11T13:18:54.044Z,15.70
2022-09-11T13:21:26.340Z,15.60
2022-09-11T13:23:55.170Z,15.90
2022-09-11T13:26:27.411Z,15.80
2022-09-11T13:28:57.927Z,16.00
2022-09-11T13:31:32.979Z,15.80
2022-09-11T13:34:02.786Z,15.70
2022-09-11T13:36:31.531Z,15.80
2022-09-11T13:39:02.323Z,15.90
2022-09-11T13:41:33.025Z,16.00
2022-09-11T13:44:02.985Z,16.30
2022-09-11T13:46:33.320Z,16.50
2022-09-11T13:49:25.818Z,16.60
2022-09-11T13:51:54.328Z,16.60
2022-09-11T13:54:32.080Z,16.10
2022-09-11T13:57:16.371Z,15.90
2022-09-11T13:59:49.543Z,16.00
2022-09-11T14:02:28.704Z,16.30
2022-09-11T14:05:04.751Z,16.60
2022-09-11T14:07:35.070Z,16.70
2022-09-11T14:10:08.926Z,16.90
2022-09-11T14:12:50.823Z,17.00
2022-09-11T14:15:25.693Z,17.10
2022-09-11T14:17:55.554Z,17.20
2022-09-11T14:20:24.504Z,17.30
2022-09-11T14:22:56.753Z,17.30
2022-09-11T14:25:25.175Z,17.20
2022-09-11T14:27:53.223Z,17.40
2022-09-11T14:30:36.134Z,17.50
2022-09-11T14:33:20.147Z,17.40
2022-09-11T14:35:50.424Z,17.20
2022-09-11T14:38:21.733Z,17.20
2022-09-11T14:40:56.309Z,17.00
2022-09-11T14:43:31.030Z,16.90
2022-09-11T14:45:59.733Z,16.60
2022-09-11T14:48:30.487Z,16.40
2022-09-11T14:50:59.052Z,16.30
2022-09-11T14:53:32.385Z,16.40
2022-09-11T14:56:02.651Z,16.40
2022-09-11T14:58:31.720Z,16.20
2022-09-11T15:01:00.156Z,16.10
2022-09-11T15:03:30.033Z,16.00
2022-09-11T15:05:59.310Z,15.90
2022-09-11T15:08:27.339Z,15.90
2022-09-11T15:10:55.426Z,15.70
2022-09-11T15:13:23.360Z,15.80
2022-09-11T15:15:53.325Z,15.90
2022-09-11T15:18:21.469Z,15.90
2022-09-11T15:20:50.701Z,16.00
2022-09-11T15:23:18.607Z,16.10
2022-09-11T15:25:46.650Z,16.10
2022-09-11T15:28:14.732Z,15.90
2022-09-11T15:30:43.037Z,15.90
2022-09-11T15:33:11.701Z,15.90
2022-09-11T15:35:39.583Z,16.00
2022-09-11T15:38:09.982Z,16.10
2022-09-11T15:40:39.932Z,16.00
2022-09-11T15:43:08.065Z,16.00
2022-09-11T15:45:42.873Z,16.00
2022-09-11T15:48:10.842Z,16.00
2022-09-11T15:50:39.840Z,16.10
2022-09-11T15:53:09.673Z,16.30
2022-09-11T15:55:37.528Z,16.60
2022-09-11T15:58:05.418Z,16.60
2022-09-11T16:00:35.452Z,16.70
2022-09-11T16:03:04.100Z,16.60
2022-09-11T16:05:32.360Z,16.60
2022-09-11T16:08:00.288Z,16.40
2022-09-11T16:10:29.481Z,16.20
2022-09-11T16:12:58.938Z,15.90
2022-09-11T16:15:27.076Z,15.60
2022-09-11T16:17:54.970Z,15.30
2022-09-11T16:20:22.803Z,15.20
2022-09-11T16:22:50.758Z,15.10
2022-09-11T16:25:19.765Z,15.00
2022-09-11T16:27:51.204Z,15.00
2022-09-11T16:30:42.850Z,15.00
2022-09-11T16:33:07.160Z,14.90
2022-09-11T16:35:37.003Z,14.70
2022-09-11T16:38:07.261Z,14.70
2022-09-11T16:40:35.716Z,14.60
2022-09-11T16:43:06.050Z,14.50
2022-09-11T16:45:34.799Z,14.40
2022-09-11T16:48:04.981Z,14.30
2022-09-11T16:50:33.082Z,14.10
2022-09-11T16:53:01.193Z,14.00
2022-09-11T16:55:29.102Z,13.90
2022-09-11T16:57:56.974Z,13.80
2022-09-11T17:00:26.241Z,13.60
2022-09-11T17:02:54.114Z,13.50
2022-09-11T17:05:22.036Z,13.30
2022-09-11T17:07:49.959Z,13.10
2022-09-11T17:10:18.416Z,13.00
2022-09-11T17:12:46.301Z,12.90
2022-09-11T17:15:14.256Z,12.70
2022-09-11T17:17:44.114Z,12.60
2022-09-11T17:20:12.688Z,12.40
2022-09-11T17:22:40.855Z,12.30
2022-09-11T17:25:09.536Z,12.20
2022-09-11T17:27:37.426Z,12.00
2022-09-11T17:30:06.504Z,11.90
2022-09-11T17:32:34.426Z,11.80
2022-09-11T17:35:03.824Z,11.70
2022-09-11T17:37:32.576Z,11.60
2022-09-11T17:40:02.197Z,11.50
2022-09-11T17:42:32.390Z,11.40
2022-09-11T17:45:01.686Z,11.30
2022-09-11T17:47:32.971Z,11.20
2022-09-11T17:50:01.694Z,11.20
2022-09-11T17:52:33.114Z,11.00
2022-09-11T17:55:01.034Z,11.00
2022-09-11T17:57:28.986Z,10.90
2022-09-11T17:59:57.323Z,10.80
2022-09-11T18:02:25.440Z,10.70
2022-09-11T18:05:18.499Z,10.60
2022-09-11T18:07:48.511Z,10.50
2022-09-11T18:10:16.565Z,10.50
2022-09-11T18:12:44.438Z,10.50
2022-09-11T18:15:12.409Z,10.40
2022-09-11T18:17:40.402Z,10.30
2022-09-11T18:20:09.720Z,10.30
2022-09-11T18:22:39.854Z,10.30
2022-09-11T18:25:10.420Z,10.20
2022-09-11T18:27:39.864Z,10.10
2022-09-11T18:30:09.849Z,10.10
2022-09-11T18:32:39.386Z,10.00
2022-09-11T18:35:09.003Z,10.00
2022-09-11T18:37:37.012Z,9.90
2022-09-11T18:40:05.485Z,9.90
2022-09-11T18:42:34.979Z,9.80
2022-09-11T18:45:02.884Z,9.80
2022-09-11T18:47:31.657Z,9.80
2022-09-11T18:50:00.927Z,9.70
2022-09-11T18:52:30.746Z,9.70
2022-09-11T18:55:00.244Z,9.60
2022-09-11T18:57:28.722Z,9.60
2022-09-11T18:59:57.982Z,9.50
2022-09-11T19:02:25.821Z,9.50
2022-09-11T19:04:53.700Z,9.40
2022-09-11T19:07:21.582Z,9.40
2022-09-11T19:09:49.612Z,9.40
2022-09-11T19:12:17.653Z,9.40
2022-09-11T19:14:45.545Z,9.30
2022-09-11T19:17:14.774Z,9.30
2022-09-11T19:19:42.673Z,9.20
2022-09-11T19:22:11.184Z,9.20
2022-09-11T19:24:39.136Z,9.20
2022-09-11T19:27:07.065Z,9.20
2022-09-11T19:29:34.953Z,9.10
2022-09-11T19:32:03.329Z,9.10
2022-09-11T19:34:36.121Z,9.10
2022-09-11T19:37:06.881Z,9.10
2022-09-11T19:39:34.734Z,9.10
2022-09-11T19:42:03.004Z,9.00
2022-09-11T19:44:32.611Z,9.00
2022-09-11T19:47:00.556Z,9.00
2022-09-11T19:49:29.040Z,9.00
2022-09-11T19:52:00.385Z,8.90
2022-09-11T19:54:30.652Z,8.90
2022-09-11T19:57:00.224Z,8.80
2022-09-11T19:59:28.308Z,8.90
2022-09-11T20:01:56.334Z,8.90
2022-09-11T20:04:25.036Z,8.90
2022-09-11T20:09:30.929Z,8.80
2022-09-11T20:12:00.793Z,8.70
2022-09-11T20:14:29.117Z,8.70
2022-09-11T20:16:57.012Z,8.70
2022-09-11T20:19:27.173Z,8.70
2022-09-11T20:21:55.070Z,8.60
2022-09-11T20:24:24.505Z,8.60
2022-09-11T20:26:54.290Z,8.60
2022-09-11T20:29:22.356Z,8.50
2022-09-11T20:31:51.369Z,8.50
2022-09-11T20:34:22.030Z,8.50
2022-09-11T20:36:49.954Z,8.40
2022-09-11T20:39:20.047Z,8.50
2022-09-11T20:41:49.330Z,8.40
2022-09-11T20:44:17.424Z,8.40
2022-09-11T20:46:47.446Z,8.50
2022-09-11T20:49:15.581Z,8.60
2022-09-11T20:51:43.529Z,8.80
2022-09-11T20:54:11.435Z,9.00
2022-09-11T20:56:40.401Z,9.20
2022-09-11T20:59:09.881Z,9.30
2022-09-11T21:01:37.983Z,9.50
2022-09-11T21:04:06.518Z,9.60
2022-09-11T21:06:35.744Z,9.70
2022-09-11T21:09:07.215Z,9.80
2022-09-11T21:11:36.349Z,9.80
2022-09-11T21:14:04.678Z,9.90
2022-09-11T21:16:34.316Z,9.90
2022-09-11T21:19:03.172Z,10.00
2022-09-11T21:21:31.934Z,10.10
2022-09-11T21:24:01.938Z,10.20
2022-09-11T21:26:31.612Z,10.30
2022-09-11T21:29:01.115Z,10.30
2022-09-11T21:31:29.173Z,10.40
2022-09-11T21:33:59.206Z,10.40
2022-09-11T21:36:27.357Z,10.50
2022-09-11T21:38:55.578Z,10.60
2022-09-11T21:41:23.456Z,10.60
2022-09-11T21:43:51.453Z,10.70
2022-09-11T21:46:19.374Z,10.70
2022-09-11T21:48:47.433Z,10.60
2022-09-11T21:51:19.958Z,10.60
2022-09-11T21:53:49.778Z,10.50
2022-09-11T21:56:20.197Z,10.50
2022-09-11T21:58:48.262Z,10.50
2022-09-11T22:01:16.200Z,10.60
2022-09-11T22:03:44.655Z,10.60
2022-09-11T22:06:14.253Z,10.70
2022-09-11T22:08:45.128Z,10.80
2022-09-11T22:11:13.507Z,10.90
2022-09-11T22:13:41.560Z,10.90
2022-09-11T22:16:11.643Z,11.00
2022-09-11T22:18:40.892Z,11.00
2022-09-11T22:21:10.339Z,10.90
2022-09-11T22:23:38.301Z,10.90
2022-09-11T22:26:10.573Z,10.80
2022-09-11T22:28:39.097Z,10.80
2022-09-11T22:31:11.545Z,10.70
2022-09-11T22:33:41.105Z,10.60
2022-09-11T22:36:11.429Z,10.50
2022-09-11T22:38:39.286Z,10.40
2022-09-11T22:41:09.468Z,10.30
2022-09-11T22:43:37.451Z,10.30
2022-09-11T22:46:06.163Z,10.30
2022-09-11T22:48:34.501Z,10.30
2022-09-11T22:51:02.668Z,10.40
2022-09-11T22:53:31.033Z,10.40
2022-09-11T22:55:59.323Z,10.50
2022-09-11T22:58:30.649Z,10.60
2022-09-11T23:01:00.916Z,10.70
2022-09-11T23:03:29.025Z,10.80
2022-09-11T23:06:14.551Z,10.90
2022-09-11T23:08:42.497Z,10.90
2022-09-11T23:11:11.454Z,10.90
2022-09-11T23:13:41.373Z,10.90
2022-09-11T23:16:15.294Z,10.90
2022-09-11T23:18:44.126Z,10.90
2022-09-11T23:21:12.839Z,10.80
2022-09-11T23:23:42.916Z,10.80
2022-09-11T23:26:12.204Z,10.80
2022-09-11T23:28:41.853Z,10.90
2022-09-11T23:31:13.749Z,10.90
2022-09-11T23:33:42.342Z,11.00
2022-09-11T23:36:12.909Z,11.00
2022-09-11T23:38:41.515Z,11.00
2022-09-11T23:41:09.504Z,11.10
2022-09-11T23:43:37.404Z,11.10
2022-09-11T23:46:07.132Z,11.00
2022-09-11T23:48:35.206Z,11.00
2022-09-11T23:51:03.246Z,11.00
2022-09-11T23:53:31.663Z,11.10
2022-09-11T23:56:00.170Z,11.20
2022-09-11T23:58:28.065Z,11.20
